Time;durP1;ratioP1;P1;durP2;ratioP2;P2;SDS_P1;SDS_P2;PMS_P1;PMS_P2;Temp;Humidity;BMP_temperature;BMP_pressure;BME280_temperature;BME280_humidity;BME280_pressure;Samples;Min_cycle;Max_cycle;Signal;HPM_P1;HPM_P2
2022/05/26 00:01:16;;;;;;;2.20;1.30;;;16.20;61.30;;;;;;5095024;28;20107;-70
2022/05/26 00:03:44;;;;;;;1.58;1.30;;;16.20;61.40;;;;;;5094683;28;20020;-70
2022/05/26 00:06:12;;;;;;;2.47;1.33;;;16.10;61.50;;;;;;5094697;28;20115;-70
2022/05/26 00:08:39;;;;;;;1.92;1.40;;;16.10;61.50;;;;;;5094864;28;20058;-71
2022/05/26 00:11:09;;;;;;;1.98;1.40;;;16.10;61.50;;;;;;5094740;28;20115;-70
2022/05/26 00:13:36;;;;;;;8.18;3.03;;;16.10;61.60;;;;;;5093461;28;20031;-70
2022/05/26 00:16:02;;;;;;;2.67;1.92;;;16.10;61.50;;;;;;5093137;28;20073;-70
2022/05/26 00:18:28;;;;;;;2.70;1.42;;;16.10;61.60;;;;;;5094677;28;20028;-70
2022/05/26 00:20:54;;;;;;;3.25;1.27;;;16.00;61.70;;;;;;5094518;28;20039;-70
2022/05/26 00:23:20;;;;;;;3.17;1.50;;;16.00;61.70;;;;;;5095148;28;20150;-70
2022/05/26 00:25:46;;;;;;;2.33;1.50;;;16.00;61.70;;;;;;5094225;28;20081;-70
2022/05/26 00:28:12;;;;;;;5.95;1.60;;;16.00;61.80;;;;;;5093255;28;20036;-70
2022/05/26 00:30:38;;;;;;;2.80;1.63;;;16.00;62.00;;;;;;5094449;28;20032;-71
2022/05/26 00:33:06;;;;;;;2.05;1.42;;;15.90;62.00;;;;;;5093102;28;20035;-70
2022/05/26 00:35:34;;;;;;;2.03;1.67;;;15.90;62.10;;;;;;5093079;28;20024;-70
2022/05/26 00:38:04;;;;;;;2.58;1.77;;;15.90;62.10;;;;;;5093037;28;20119;-70
2022/05/26 00:40:31;;;;;;;2.70;1.58;;;15.90;62.20;;;;;;5094301;28;20027;-70
2022/05/26 00:42:59;;;;;;;2.70;1.48;;;15.90;62.30;;;;;;5092930;28;20118;-70
2022/05/26 00:45:33;;;;;;;2.72;1.40;;;15.90;62.30;;;;;;5092842;28;20110;-70
2022/05/26 00:47:59;;;;;;;5.55;1.50;;;15.80;62.40;;;;;;5092016;28;20032;-70
2022/05/26 00:50:30;;;;;;;4.22;1.58;;;15.80;62.30;;;;;;5092790;28;20040;-70
2022/05/26 00:53:18;;;;;;;3.75;1.50;;;15.80;62.50;;;;;;5092709;28;20024;-70
2022/05/26 00:55:53;;;;;;;2.60;1.27;;;15.80;62.70;;;;;;5093737;28;20024;-70
2022/05/26 00:58:24;;;;;;;2.20;1.73;;;15.80;62.60;;;;;;5092682;28;20031;-71
2022/05/26 01:00:50;;;;;;;3.47;1.77;;;15.80;62.70;;;;;;5092587;28;20032;-70
2022/05/26 01:03:32;;;;;;;4.20;1.60;;;15.70;62.60;;;;;;5092463;28;20024;-70
2022/05/26 01:06:07;;;;;;;2.75;1.65;;;15.70;62.70;;;;;;5092349;28;20024;-70
2022/05/26 01:08:55;;;;;;;1.92;1.33;;;15.70;62.80;;;;;;5092015;28;20048;-70
2022/05/26 01:11:24;;;;;;;4.03;2.00;;;15.70;63.00;;;;;;5093736;28;20029;-70
2022/05/26 01:13:59;;;;;;;4.88;4.22;;;15.70;62.90;;;;;;5092467;28;20111;-70
2022/05/26 01:16:44;;;;;;;4.53;2.90;;;15.70;63.20;;;;;;5092284;28;20024;-70
2022/05/26 01:19:47;;;;;;;5.38;2.25;;;15.60;63.20;;;;;;5092669;28;20122;-70
2022/05/26 01:22:38;;;;;;;2.40;1.75;;;15.70;63.30;;;;;;5092170;28;20395;-70
2022/05/26 01:25:41;;;;;;;1.80;1.42;;;15.60;63.10;;;;;;5092155;28;20168;-70
2022/05/26 01:28:15;;;;;;;4.03;1.63;;;15.60;63.10;;;;;;5093691;28;20020;-70
2022/05/26 01:30:55;;;;;;;1.27;1.17;;;15.60;63.00;;;;;;5092027;28;20047;-70
2022/05/26 01:33:47;;;;;;;2.47;1.60;;;15.60;63.20;;;;;;5092165;28;20020;-70
2022/05/26 01:36:27;;;;;;;1.33;1.23;;;15.50;63.20;;;;;;5092093;28;20025;-70
2022/05/26 01:39:04;;;;;;;1.63;1.38;;;15.50;63.20;;;;;;5092172;28;20024;-70
2022/05/26 01:42:05;;;;;;;7.03;1.60;;;15.50;63.40;;;;;;5092074;28;20068;-70
2022/05/26 01:44:43;;;;;;;2.97;1.50;;;15.50;63.60;;;;;;5093402;28;20368;-70
2022/05/26 01:47:38;;;;;;;9.43;2.05;;;15.50;63.40;;;;;;5090278;28;20025;-71
2022/05/26 01:50:18;;;;;;;1.40;1.25;;;15.50;63.70;;;;;;5073099;28;20095;-71
2022/05/26 01:52:55;;;;;;;2.85;1.40;;;15.50;63.70;;;;;;5084004;28;20487;-71
2022/05/26 01:55:41;;;;;;;7.05;1.60;;;15.50;63.80;;;;;;5091635;28;20024;-71
2022/05/26 01:58:30;;;;;;;6.45;1.40;;;15.40;63.90;;;;;;5076619;28;20469;-71
2022/05/26 02:00:59;;;;;;;1.50;1.17;;;15.40;63.90;;;;;;5088504;28;20033;-71
2022/05/26 02:03:29;;;;;;;4.18;2.15;;;15.40;63.80;;;;;;5076901;28;20103;-72
2022/05/26 02:06:03;;;;;;;2.10;1.55;;;15.40;63.80;;;;;;5091963;28;20032;-72
2022/05/26 02:08:34;;;;;;;3.47;1.55;;;15.40;63.90;;;;;;5094659;28;20052;-71
2022/05/26 02:11:13;;;;;;;2.25;1.75;;;15.40;64.00;;;;;;5096686;28;20480;-71
2022/05/26 02:13:51;;;;;;;3.45;2.03;;;15.40;64.50;;;;;;5095675;28;20024;-71
2022/05/26 02:16:28;;;;;;;2.60;1.77;;;15.40;65.10;;;;;;5095489;28;20495;-71
2022/05/26 02:19:04;;;;;;;2.22;1.83;;;15.30;65.30;;;;;;5084871;28;20388;-71
2022/05/26 02:21:44;;;;;;;2.95;1.42;;;15.40;65.10;;;;;;5075230;28;20045;-71
2022/05/26 02:24:21;;;;;;;2.97;1.73;;;15.30;64.70;;;;;;5091518;28;20368;-69
2022/05/26 02:26:47;;;;;;;2.67;1.60;;;15.30;64.60;;;;;;5095299;28;20020;-71
2022/05/26 02:31:57;;;;;;;2.30;1.50;;;15.30;64.40;;;;;;5096597;28;20027;-71
2022/05/26 02:34:25;;;;;;;5.55;1.67;;;15.30;64.40;;;;;;5094997;28;20192;-71
2022/05/26 02:36:54;;;;;;;2.40;1.60;;;15.30;64.40;;;;;;5074938;28;20115;-71
2022/05/26 02:39:20;;;;;;;3.55;2.28;;;15.30;64.50;;;;;;5075864;28;20396;-72
2022/05/26 02:41:46;;;;;;;2.75;1.75;;;15.30;64.60;;;;;;5076169;28;20027;-71
2022/05/26 02:44:12;;;;;;;2.13;1.88;;;15.20;64.50;;;;;;5092758;28;20031;-70
2022/05/26 02:46:42;;;;;;;3.13;2.03;;;15.20;64.60;;;;;;5095008;28;20118;-72
2022/05/26 02:49:22;;;;;;;3.83;1.60;;;15.20;64.60;;;;;;5094989;28;20434;-71
2022/05/26 02:52:27;;;;;;;3.55;2.10;;;15.20;64.80;;;;;;5096571;28;20075;-71
2022/05/26 02:55:08;;;;;;;;;;;15.10;64.80;;;;;;5095380;28;20070;-71
2022/05/26 02:57:50;;;;;;;2.40;1.42;;;15.20;64.10;;;;;;5096189;28;19904;-71
2022/05/26 03:00:35;;;;;;;2.38;1.83;;;15.10;64.50;;;;;;5094680;28;20060;-71
2022/05/26 03:03:22;;;;;;;2.25;2.05;;;15.10;64.80;;;;;;5096115;28;20016;-71
2022/05/26 03:06:07;;;;;;;3.92;1.67;;;15.10;64.80;;;;;;5094797;28;20434;-70
2022/05/26 03:08:36;;;;;;;;;;;15.10;65.10;;;;;;5094987;28;20052;-71
2022/05/26 03:11:24;;;;;;;2.70;1.75;;;15.10;64.60;;;;;;5093467;28;19908;-71
2022/05/26 03:13:51;;;;;;;6.70;2.30;;;15.10;64.80;;;;;;5089578;28;20028;-72
2022/05/26 03:16:17;;;;;;;5.90;2.08;;;15.10;64.80;;;;;;5085375;28;20029;-82
2022/05/26 03:18:43;;;;;;;3.17;2.22;;;15.10;65.00;;;;;;5086240;28;20111;-70
2022/05/26 03:21:10;;;;;;;2.63;2.10;;;15.10;65.10;;;;;;5093601;28;20123;-70
2022/05/26 03:23:37;;;;;;;3.15;2.10;;;15.00;65.10;;;;;;5095436;28;20031;-70
2022/05/26 03:26:05;;;;;;;4.53;2.05;;;15.00;65.20;;;;;;5094325;28;20024;-71
2022/05/26 03:28:31;;;;;;;2.30;1.70;;;15.00;65.30;;;;;;5092938;28;20024;-71
2022/05/26 03:30:57;;;;;;;3.60;2.08;;;15.10;65.50;;;;;;5093468;28;20436;-71
2022/05/26 03:33:24;;;;;;;4.80;1.98;;;15.10;65.60;;;;;;5095508;28;20447;-71
2022/05/26 03:41:25;;;;;;;2.53;2.15;;;15.10;66.00;;;;;;5095002;28;20031;-71
2022/05/26 03:43:59;;;;;;;4.70;2.03;;;15.20;66.10;;;;;;5094013;28;20088;-71
2022/05/26 03:46:27;;;;;;;3.72;2.58;;;15.20;66.10;;;;;;5093644;28;20111;-71
2022/05/26 03:48:53;;;;;;;3.63;2.28;;;15.20;65.90;;;;;;5094488;28;20073;-71
2022/05/26 03:51:19;;;;;;;3.20;2.33;;;15.20;65.90;;;;;;5091505;28;20024;-72
2022/05/26 03:53:45;;;;;;;2.45;2.13;;;15.30;66.10;;;;;;5092911;28;20482;-71
2022/05/26 03:56:12;;;;;;;5.45;2.35;;;15.30;66.40;;;;;;5095118;28;20051;-70
2022/05/26 03:58:37;;;;;;;4.78;3.22;;;15.40;66.70;;;;;;5095120;28;20047;-70
2022/05/26 04:01:05;;;;;;;6.82;3.03;;;15.50;66.90;;;;;;5092845;28;20064;-72
2022/05/26 04:03:32;;;;;;;5.22;2.60;;;15.60;67.00;;;;;;5092661;28;20474;-71
2022/05/26 04:05:58;;;;;;;8.65;3.45;;;15.70;66.90;;;;;;5092473;28;20031;-71
2022/05/26 04:08:24;;;;;;;6.75;3.92;;;15.80;67.10;;;;;;5092609;28;20039;-71
2022/05/26 04:10:49;;;;;;;4.90;3.35;;;15.80;66.90;;;;;;5094221;28;20107;-71
2022/05/26 04:13:16;;;;;;;5.60;3.78;;;15.90;66.60;;;;;;5092142;28;20052;-71
2022/05/26 04:15:41;;;;;;;4.65;3.22;;;16.00;66.30;;;;;;5091588;28;20359;-71
2022/05/26 04:18:07;;;;;;;5.13;3.38;;;16.10;65.90;;;;;;5093035;28;20077;-72
2022/05/26 04:20:33;;;;;;;4.82;3.60;;;16.20;65.60;;;;;;5093842;28;20367;-71
2022/05/26 04:22:59;;;;;;;5.68;3.47;;;16.20;65.30;;;;;;5091775;28;20019;-71
2022/05/26 04:25:25;;;;;;;6.63;3.78;;;16.20;64.90;;;;;;5093007;28;20062;-71
2022/05/26 04:27:53;;;;;;;5.15;3.40;;;16.20;64.80;;;;;;5092458;28;20036;-71
2022/05/26 04:30:20;;;;;;;9.07;3.80;;;16.30;64.90;;;;;;5093921;28;20464;-71
2022/05/26 04:32:46;;;;;;;4.97;3.65;;;16.30;65.80;;;;;;5091918;28;20026;-71
2022/05/26 04:35:12;;;;;;;6.35;3.90;;;16.30;64.90;;;;;;5092806;28;20024;-71
2022/05/26 04:37:39;;;;;;;5.90;4.32;;;16.40;65.00;;;;;;5092036;28;20027;-71
2022/05/26 04:40:06;;;;;;;6.03;4.50;;;16.40;64.90;;;;;;5092561;28;20410;-71
2022/05/26 04:42:32;;;;;;;5.20;3.70;;;16.40;64.80;;;;;;5092562;28;20024;-71
2022/05/26 04:44:58;;;;;;;8.45;4.95;;;16.50;64.80;;;;;;5092496;28;20097;-71
2022/05/26 04:47:25;;;;;;;8.60;5.20;;;16.50;64.60;;;;;;5092860;28;20020;-71
2022/05/26 04:49:51;;;;;;;7.40;5.03;;;16.50;64.40;;;;;;5092749;28;20020;-71
2022/05/26 04:52:21;;;;;;;7.63;4.88;;;16.50;64.30;;;;;;5092736;28;20478;-71
2022/05/26 04:54:49;;;;;;;10.02;4.43;;;16.60;64.50;;;;;;5091993;28;20134;-70
2022/05/26 04:57:17;;;;;;;5.93;4.20;;;16.70;64.80;;;;;;5093070;28;20026;-71
2022/05/26 04:59:43;;;;;;;6.97;4.60;;;16.80;65.10;;;;;;5093372;28;20379;-70
2022/05/26 05:02:14;;;;;;;8.15;5.10;;;16.80;65.20;;;;;;5093712;28;20019;-72
2022/05/26 05:04:42;;;;;;;8.32;4.85;;;16.90;65.10;;;;;;5092379;28;20466;-71
2022/05/26 05:07:09;;;;;;;9.23;4.72;;;17.00;64.90;;;;;;5092328;28;20416;-70
2022/05/26 05:09:39;;;;;;;6.53;4.50;;;17.20;64.60;;;;;;5092437;28;20341;-71
2022/05/26 05:12:06;;;;;;;7.45;4.95;;;17.20;64.30;;;;;;5093597;28;20023;-71
2022/05/26 05:14:40;;;;;;;7.05;4.85;;;17.30;64.30;;;;;;5091039;28;20016;-71
2022/05/26 05:17:06;;;;;;;;;;;17.50;64.60;;;;;;5092448;28;20099;-71
2022/05/26 05:19:31;;;;;;;7.28;5.50;;;17.60;64.60;;;;;;5092004;28;19983;-71
2022/05/26 05:22:07;;;;;;;11.07;6.57;;;17.80;63.90;;;;;;5092086;28;20024;-71
2022/05/26 05:24:53;;;;;;;9.63;6.80;;;17.90;63.20;;;;;;5071947;28;20085;-70
2022/05/26 05:27:54;;;;;;;11.20;6.07;;;18.00;62.30;;;;;;5076950;28;20475;-71
2022/05/26 05:30:25;;;;;;;11.30;6.55;;;18.20;62.00;;;;;;5093552;28;20146;-71
2022/05/26 05:32:56;;;;;;;9.35;6.07;;;18.30;61.90;;;;;;5092760;28;20043;-72
2022/05/26 05:35:31;;;;;;;7.97;5.28;;;18.40;61.80;;;;;;5091984;28;20356;-72
2022/05/26 05:37:58;;;;;;;8.20;5.60;;;18.50;61.50;;;;;;5091277;28;20117;-71
2022/05/26 05:40:24;;;;;;;8.57;5.65;;;18.60;60.90;;;;;;5092350;28;20032;-70
2022/05/26 05:42:50;;;;;;;7.57;4.65;;;18.60;60.70;;;;;;5092867;28;20069;-71
2022/05/26 05:45:16;;;;;;;6.30;4.13;;;18.60;60.70;;;;;;5080570;28;20492;-71
2022/05/26 05:47:42;;;;;;;7.47;4.35;;;18.70;60.60;;;;;;5079268;28;20030;-71
2022/05/26 05:50:08;;;;;;;7.38;5.20;;;18.70;60.50;;;;;;5091858;28;20028;-71
2022/05/26 05:52:34;;;;;;;8.57;4.20;;;18.80;60.30;;;;;;5093235;28;20374;-71
2022/05/26 05:55:00;;;;;;;6.00;3.80;;;18.90;60.20;;;;;;5091983;28;20111;-71
2022/05/26 05:57:26;;;;;;;7.65;4.10;;;18.90;60.10;;;;;;5090957;28;20401;-71
2022/05/26 05:59:52;;;;;;;5.13;4.10;;;18.90;60.00;;;;;;5091674;28;20031;-71
2022/05/26 06:02:18;;;;;;;7.70;4.03;;;19.00;59.70;;;;;;5093546;28;20024;-70
2022/05/26 06:04:43;;;;;;;4.32;3.72;;;19.10;60.10;;;;;;5092022;28;20079;-71
2022/05/26 06:07:15;;;;;;;6.70;4.00;;;19.20;60.20;;;;;;5092893;28;20479;-71
2022/05/26 06:09:41;;;;;;;8.38;4.55;;;19.40;60.00;;;;;;5092256;28;20040;-71
2022/05/26 06:12:08;;;;;;;5.15;4.00;;;19.50;59.70;;;;;;5093252;28;20020;-71
2022/05/26 06:14:34;;;;;;;5.05;3.72;;;19.70;59.40;;;;;;5090696;28;20024;-71
2022/05/26 06:17:00;;;;;;;7.38;4.05;;;19.90;58.80;;;;;;5091673;28;20027;-71
2022/05/26 06:19:26;;;;;;;5.10;3.80;;;20.00;58.10;;;;;;5091605;28;20035;-71
2022/05/26 06:21:52;;;;;;;5.35;3.78;;;20.20;57.90;;;;;;5091893;28;20043;-72
2022/05/26 06:24:22;;;;;;;7.25;4.20;;;20.30;57.80;;;;;;5092656;28;20020;-71
2022/05/26 06:26:49;;;;;;;4.38;3.97;;;20.40;57.80;;;;;;5092632;28;20016;-71
2022/05/26 06:37:28;;;;;;;6.47;3.80;;;20.90;56.70;;;;;;5081089;28;20031;-72
2022/05/26 06:39:55;;;;;;;3.70;3.30;;;21.00;56.40;;;;;;5091473;28;20024;-71
2022/05/26 06:42:24;;;;;;;6.75;3.50;;;21.10;56.10;;;;;;5092454;28;20020;-71
2022/05/26 06:44:50;;;;;;;4.07;3.10;;;21.20;55.50;;;;;;5091259;28;20078;-71
2022/05/26 06:47:22;;;;;;;4.10;2.72;;;21.30;55.30;;;;;;5095106;28;20024;-71
2022/05/26 06:49:48;;;;;;;3.47;3.00;;;21.40;54.70;;;;;;5095123;28;20078;-71
2022/05/26 06:52:18;;;;;;;3.83;2.70;;;21.40;54.10;;;;;;5094843;28;20024;-71
2022/05/26 06:54:46;;;;;;;3.97;2.63;;;21.50;54.70;;;;;;5094827;28;20444;-71
2022/05/26 06:57:13;;;;;;;4.65;2.42;;;21.60;54.80;;;;;;5094089;28;20360;-71
2022/05/26 06:59:39;;;;;;;4.63;3.20;;;21.70;54.30;;;;;;5094792;28;20479;-70
2022/05/26 07:02:10;;;;;;;2.53;2.13;;;21.70;52.90;;;;;;5094689;28;20097;-72
2022/05/26 07:04:38;;;;;;;3.00;2.70;;;21.70;53.00;;;;;;5096173;28;20074;-71
2022/05/26 07:07:04;;;;;;;3.63;2.80;;;21.70;52.80;;;;;;5094634;28;20036;-71
2022/05/26 07:09:31;;;;;;;2.50;2.20;;;21.60;52.80;;;;;;5094743;28;20425;-72
2022/05/26 07:11:58;;;;;;;4.18;2.38;;;21.60;52.90;;;;;;5095697;28;20016;-71
2022/05/26 07:14:24;;;;;;;2.90;2.22;;;21.50;52.70;;;;;;5095818;28;20065;-71
2022/05/26 07:16:49;;;;;;;2.13;1.88;;;21.40;52.40;;;;;;5094179;28;20024;-71
2022/05/26 07:19:17;;;;;;;2.42;2.05;;;21.30;52.00;;;;;;5094350;28;20023;-71
2022/05/26 07:21:46;;;;;;;2.78;1.92;;;21.20;52.00;;;;;;5093232;28;20020;-72
2022/05/26 07:24:13;;;;;;;1.92;1.67;;;21.10;52.00;;;;;;5095415;28;20355;-71
2022/05/26 07:26:40;;;;;;;2.28;1.58;;;21.10;52.00;;;;;;5094316;28;20352;-71
2022/05/26 07:29:06;;;;;;;4.15;2.25;;;21.00;52.00;;;;;;5095291;28;20024;-70
2022/05/26 07:31:32;;;;;;;2.25;1.50;;;21.00;52.20;;;;;;5080777;28;20023;-70
2022/05/26 07:33:57;;;;;;;3.55;1.60;;;21.00;52.50;;;;;;5073613;28;20024;-70
2022/05/26 07:41:59;;;;;;;5.03;1.85;;;21.00;52.40;;;;;;5095398;28;20058;-70
2022/05/26 07:44:26;;;;;;;2.75;1.73;;;21.00;52.40;;;;;;5095186;28;20056;-71
2022/05/26 07:46:52;;;;;;;5.22;1.83;;;21.00;52.60;;;;;;5093925;28;20032;-71
2022/05/26 07:49:17;;;;;;;4.15;1.75;;;21.10;52.40;;;;;;5095084;28;20460;-71
2022/05/26 07:51:43;;;;;;;2.10;1.90;;;21.10;52.20;;;;;;5093445;28;20133;-71
2022/05/26 07:54:09;;;;;;;3.78;1.77;;;21.10;51.70;;;;;;5094793;28;20027;-71
2022/05/26 07:56:39;;;;;;;1.80;1.30;;;21.20;52.00;;;;;;5094182;28;20051;-70
2022/05/26 07:59:06;;;;;;;2.20;1.75;;;21.30;52.30;;;;;;5092955;28;20023;-70
2022/05/26 08:01:33;;;;;;;2.95;1.83;;;21.30;52.10;;;;;;5094801;28;20028;-71
2022/05/26 08:04:00;;;;;;;2.35;1.90;;;21.30;52.30;;;;;;5093474;28;20044;-70
2022/05/26 08:06:26;;;;;;;4.45;1.67;;;21.30;52.00;;;;;;5093470;28;20020;-71
2022/05/26 08:08:51;;;;;;;2.80;1.80;;;21.30;52.00;;;;;;5094098;28;20345;-71
2022/05/26 08:11:17;;;;;;;4.28;2.40;;;21.40;51.80;;;;;;5093343;28;20036;-70
2022/05/26 08:13:43;;;;;;;3.10;2.10;;;21.40;51.60;;;;;;5093802;28;20023;-71
2022/05/26 08:16:09;;;;;;;2.25;1.58;;;21.40;51.70;;;;;;5093331;28;20028;-71
2022/05/26 08:18:35;;;;;;;8.45;2.20;;;21.50;52.00;;;;;;5091449;28;20363;-70
2022/05/26 08:21:09;;;;;;;3.80;2.10;;;21.50;51.60;;;;;;5093178;28;20056;-71
2022/05/26 08:23:35;;;;;;;4.35;2.38;;;21.50;51.30;;;;;;5094858;28;20031;-70
2022/05/26 08:26:01;;;;;;;3.83;2.15;;;21.50;51.60;;;;;;5093118;28;20035;-71
2022/05/26 08:28:26;;;;;;;7.72;2.28;;;21.50;51.60;;;;;;5107359;28;20024;-71
2022/05/26 08:30:52;;;;;;;4.25;2.58;;;21.60;51.40;;;;;;5094394;28;20073;-70
2022/05/26 08:33:18;;;;;;;5.93;2.50;;;21.60;51.20;;;;;;5094103;28;20016;-71
2022/05/26 08:35:44;;;;;;;3.75;2.47;;;21.70;51.40;;;;;;5094305;28;20040;-71
2022/05/26 08:38:10;;;;;;;4.15;2.60;;;21.70;51.30;;;;;;5081560;28;20373;-70
2022/05/26 08:40:50;;;;;;;3.28;2.40;;;21.80;51.30;;;;;;5092246;28;20031;-70
2022/05/26 08:43:32;;;;;;;7.50;2.70;;;21.80;50.80;;;;;;5093012;28;20383;-71
2022/05/26 08:45:58;;;;;;;4.82;2.60;;;21.80;50.70;;;;;;5094187;28;20028;-70
2022/05/26 08:49:08;;;;;;;3.33;2.05;;;21.90;50.10;;;;;;5092828;28;20028;-70
2022/05/26 08:51:55;;;;;;;2.67;1.83;;;21.90;50.50;;;;;;5080655;28;20177;-70
2022/05/26 08:54:42;;;;;;;4.05;2.60;;;22.00;50.30;;;;;;5083595;28;20024;-71
2022/05/26 08:57:15;;;;;;;4.03;2.38;;;22.00;49.90;;;;;;5078656;28;20028;-73
2022/05/26 08:59:44;;;;;;;4.90;2.28;;;22.10;49.80;;;;;;5087461;28;20032;-71
2022/05/26 09:02:33;;;;;;;8.35;1.90;;;22.10;49.50;;;;;;5092441;28;20074;-71
2022/05/26 09:05:02;;;;;;;9.43;2.63;;;22.20;49.50;;;;;;5092584;28;20023;-70
2022/05/26 09:13:14;;;;;;;4.35;1.75;;;22.40;49.10;;;;;;5093008;28;20396;-71
2022/05/26 09:15:41;;;;;;;2.40;1.42;;;22.50;47.60;;;;;;5091881;28;20020;-71
2022/05/26 09:18:16;;;;;;;2.20;1.40;;;22.50;46.60;;;;;;5091547;28;20077;-69
2022/05/26 09:20:45;;;;;;;2.85;1.38;;;22.60;46.30;;;;;;5092032;28;20036;-71
2022/05/26 09:23:24;;;;;;;3.05;1.45;;;22.70;47.20;;;;;;5093330;28;20040;-71
2022/05/26 09:26:05;;;;;;;2.40;1.67;;;22.70;46.10;;;;;;5090898;28;20349;-71
2022/05/26 09:28:40;;;;;;;5.18;1.20;;;22.80;46.70;;;;;;5093526;28;20024;-71
2022/05/26 09:31:28;;;;;;;7.45;1.63;;;22.90;46.70;;;;;;5091922;28;20097;-70
2022/05/26 09:34:14;;;;;;;2.05;1.20;;;23.10;46.30;;;;;;5072953;28;20020;-70
2022/05/26 09:36:55;;;;;;;2.75;1.50;;;23.20;45.50;;;;;;5071996;28;20097;-71
2022/05/26 09:39:34;;;;;;;3.97;1.40;;;23.30;45.20;;;;;;5091598;28;20020;-71
2022/05/26 09:42:02;;;;;;;2.55;1.10;;;23.40;44.00;;;;;;5090818;28;20506;-70
2022/05/26 09:44:48;;;;;;;2.22;0.90;;;23.50;43.30;;;;;;5090998;28;20085;-71
2022/05/26 09:47:29;;;;;;;2.15;0.77;;;23.50;42.70;;;;;;5092052;28;20070;-70
2022/05/26 09:49:58;;;;;;;2.35;0.80;;;23.60;41.70;;;;;;5090324;28;20028;-71
2022/05/26 09:52:29;;;;;;;7.82;0.90;;;23.60;42.40;;;;;;5091395;28;20046;-71
2022/05/26 09:55:26;;;;;;;1.27;0.65;;;23.60;41.20;;;;;;5092057;28;20028;-72
2022/05/26 09:58:11;;;;;;;1.00;0.63;;;23.70;41.60;;;;;;5092103;28;20353;-70
2022/05/26 10:00:48;;;;;;;1.45;0.75;;;23.80;42.10;;;;;;5092405;28;20039;-71
2022/05/26 10:03:19;;;;;;;0.52;0.52;;;23.90;41.00;;;;;;5092985;28;20031;-71
2022/05/26 10:06:08;;;;;;;1.90;0.88;;;24.00;40.40;;;;;;5092007;28;20349;-70
2022/05/26 10:09:01;;;;;;;3.35;0.73;;;24.00;39.80;;;;;;5091559;28;20055;-70
2022/05/26 10:12:05;;;;;;;1.02;0.40;;;24.10;40.40;;;;;;5092880;28;20036;-68
2022/05/26 10:14:40;;;;;;;2.28;0.70;;;24.20;40.10;;;;;;5090802;28;20024;-68
2022/05/26 10:17:32;;;;;;;1.58;0.70;;;24.20;38.90;;;;;;5092377;28;20384;-69
2022/05/26 10:20:22;;;;;;;1.55;0.90;;;24.20;39.30;;;;;;5095497;28;20387;-70
2022/05/26 10:23:20;;;;;;;2.40;0.70;;;24.30;38.30;;;;;;5097059;28;20103;-70
2022/05/26 10:26:16;;;;;;;10.90;1.00;;;24.40;40.10;;;;;;5074034;28;20036;-70
2022/05/26 10:29:10;;;;;;;4.03;0.80;;;24.50;38.60;;;;;;5095443;28;20544;-68
2022/05/26 10:32:01;;;;;;;0.90;0.80;;;24.70;37.80;;;;;;5091619;28;20035;-68
2022/05/26 10:34:27;;;;;;;1.30;0.85;;;24.80;37.50;;;;;;5078740;28;20052;-72
2022/05/26 10:36:55;;;;;;;1.33;1.00;;;25.10;38.10;;;;;;5095276;28;20024;-71
2022/05/26 10:39:46;;;;;;;1.63;0.80;;;25.30;37.00;;;;;;5095797;28;20142;-69
2022/05/26 10:42:35;;;;;;;1.50;0.77;;;25.60;36.10;;;;;;5093707;28;20388;-69
2022/05/26 10:45:36;;;;;;;1.20;0.68;;;25.80;37.10;;;;;;5096563;28;20026;-68
2022/05/26 10:48:20;;;;;;;1.90;0.60;;;26.10;36.80;;;;;;5094158;28;20076;-69
2022/05/26 10:50:52;;;;;;;1.88;0.98;;;26.30;36.30;;;;;;5094668;28;20024;-69
2022/05/26 10:53:27;;;;;;;1.17;0.70;;;26.60;35.90;;;;;;5096293;28;20047;-69
2022/05/26 10:56:26;;;;;;;1.35;0.57;;;26.70;35.30;;;;;;5096058;28;20028;-69
2022/05/26 10:59:07;;;;;;;1.00;0.60;;;26.70;34.70;;;;;;5089241;28;20035;-72
2022/05/26 11:02:06;;;;;;;5.05;0.90;;;26.80;34.80;;;;;;5076020;28;20372;-69
2022/05/26 11:04:41;;;;;;;0.73;0.47;;;26.90;35.50;;;;;;5070013;28;20481;-69
2022/05/26 11:07:35;;;;;;;2.15;0.65;;;27.00;34.70;;;;;;5075496;28;20057;-69
2022/05/26 11:10:07;;;;;;;;;;;27.00;34.30;;;;;;5066756;28;20056;-69
2022/05/26 11:13:08;;;;;;;1.63;0.73;;;27.10;36.40;;;;;;5092533;28;19918;-69
2022/05/26 11:18:39;;;;;;;1.55;0.73;;;27.00;33.80;;;;;;5079338;28;20077;-69
2022/05/26 11:21:05;;;;;;;2.80;0.90;;;26.90;32.30;;;;;;5099681;28;20388;-69
2022/05/26 11:23:37;;;;;;;3.75;0.80;;;26.70;32.30;;;;;;5093233;28;20106;-70
2022/05/26 11:26:08;;;;;;;0.98;0.60;;;26.60;32.10;;;;;;5091847;28;20029;-70
2022/05/26 11:28:40;;;;;;;1.38;0.88;;;26.40;32.50;;;;;;5095195;28;20056;-69
2022/05/26 11:36:55;;;;;;;1.38;0.70;;;26.10;32.70;;;;;;5097619;28;20446;-70
2022/05/26 11:39:34;;;;;;;0.45;0.45;;;26.00;33.30;;;;;;5091675;28;20459;-69
2022/05/26 11:42:08;;;;;;;2.00;0.90;;;26.00;33.50;;;;;;5094099;28;20020;-69
2022/05/26 11:44:44;;;;;;;1.55;0.50;;;26.00;34.00;;;;;;5095101;28;20044;-69
2022/05/26 11:47:13;;;;;;;3.63;1.15;;;25.90;34.00;;;;;;5095189;28;20030;-69
2022/05/26 11:49:45;;;;;;;1.98;0.80;;;25.80;33.20;;;;;;5094986;28;20077;-69
2022/05/26 11:52:44;;;;;;;5.78;0.88;;;25.80;33.60;;;;;;5097025;28;20142;-69
2022/05/26 11:55:15;;;;;;;2.40;0.60;;;25.80;34.00;;;;;;5091992;28;20113;-69
2022/05/26 11:57:44;;;;;;;6.30;0.70;;;25.80;34.20;;;;;;5092695;28;20468;-69
2022/05/26 12:00:16;;;;;;;5.30;0.75;;;25.80;34.00;;;;;;5096043;28;20039;-69
2022/05/26 12:02:47;;;;;;;0.88;0.60;;;25.80;34.00;;;;;;5093074;28;20032;-68
2022/05/26 12:05:28;;;;;;;3.80;0.85;;;25.80;33.90;;;;;;5094274;28;20047;-70
2022/05/26 12:07:59;;;;;;;0.90;0.60;;;25.80;33.80;;;;;;5084876;28;20045;-69
2022/05/26 12:10:28;;;;;;;1.08;0.60;;;25.80;33.20;;;;;;5093040;28;20036;-69
2022/05/26 12:13:21;;;;;;;1.20;0.50;;;25.80;33.30;;;;;;5094285;28;20077;-69
2022/05/26 12:16:08;;;;;;;1.63;0.50;;;25.70;33.70;;;;;;5079445;28;20047;-69
2022/05/26 12:18:59;;;;;;;2.40;0.60;;;25.70;34.00;;;;;;5083211;28;20047;-69
2022/05/26 12:21:28;;;;;;;1.85;0.73;;;25.70;34.10;;;;;;5088850;28;20071;-70
2022/05/26 12:23:58;;;;;;;2.38;0.88;;;25.70;33.90;;;;;;5089480;28;20030;-70
2022/05/26 12:26:49;;;;;;;3.78;0.77;;;25.80;34.00;;;;;;5091135;28;20028;-70
2022/05/26 12:29:48;;;;;;;1.83;0.63;;;25.80;34.20;;;;;;5088929;28;20028;-70
2022/05/26 12:32:25;;;;;;;2.58;0.93;;;25.90;34.40;;;;;;5094118;28;20048;-70
2022/05/26 12:35:10;;;;;;;2.55;0.60;;;25.90;33.90;;;;;;5085680;28;20035;-70
2022/05/26 12:37:44;;;;;;;1.70;0.52;;;25.90;33.80;;;;;;5093656;28;20066;-72
2022/05/26 12:40:46;;;;;;;1.40;0.52;;;26.00;33.80;;;;;;5091469;28;20032;-70
2022/05/26 12:43:29;;;;;;;1.42;0.68;;;26.00;33.90;;;;;;5084591;28;20384;-70
2022/05/26 12:46:10;;;;;;;2.95;1.10;;;26.00;33.50;;;;;;5074344;28;20027;-69
2022/05/26 12:49:04;;;;;;;1.15;0.60;;;26.20;34.00;;;;;;5072447;28;20086;-69
2022/05/26 12:51:38;;;;;;;2.35;0.63;;;26.20;34.00;;;;;;5075009;28;20447;-70
2022/05/26 12:54:11;;;;;;;1.63;0.95;;;26.20;33.30;;;;;;5094357;28;20081;-69
2022/05/26 12:56:46;;;;;;;3.95;1.40;;;26.20;33.10;;;;;;5092817;28;20070;-70
2022/05/26 12:59:14;;;;;;;3.60;1.25;;;26.20;32.90;;;;;;5092620;28;20524;-71
2022/05/26 13:01:40;;;;;;;4.78;0.70;;;26.30;32.60;;;;;;5088285;28;20073;-70
2022/05/26 13:04:11;;;;;;;3.60;0.82;;;26.40;33.20;;;;;;5092475;28;20035;-70
2022/05/26 13:06:44;;;;;;;2.20;0.60;;;26.40;32.70;;;;;;5091953;28;20471;-70
2022/05/26 13:09:22;;;;;;;3.70;0.77;;;26.50;32.60;;;;;;5091180;28;20502;-70
2022/05/26 13:11:55;;;;;;;3.13;0.70;;;26.60;32.70;;;;;;5076304;28;20384;-70
2022/05/26 13:14:45;;;;;;;1.38;0.70;;;26.60;32.50;;;;;;5093464;28;20067;-70
2022/05/26 13:17:15;;;;;;;1.10;0.60;;;26.60;32.30;;;;;;5093837;28;20413;-71
2022/05/26 13:19:49;;;;;;;3.60;0.90;;;26.70;32.70;;;;;;5074822;28;20035;-70
2022/05/26 13:22:26;;;;;;;4.05;0.77;;;26.70;32.70;;;;;;5072216;28;20125;-71
2022/05/26 13:24:58;;;;;;;4.72;2.13;;;26.80;32.10;;;;;;5072292;28;20380;-70
2022/05/26 13:27:47;;;;;;;1.75;0.90;;;27.00;32.10;;;;;;5078775;28;20020;-70
2022/05/26 13:33:11;;;;;;;1.45;0.98;;;27.70;31.10;;;;;;5093543;28;20027;-70
2022/05/26 13:35:47;;;;;;;1.50;0.90;;;28.10;31.10;;;;;;5092374;28;20097;-70
2022/05/26 13:38:40;;;;;;;1.30;0.75;;;28.60;30.80;;;;;;5092230;28;20409;-70
2022/05/26 13:41:10;;;;;;;2.40;0.80;;;29.10;29.90;;;;;;5091803;28;20119;-70
2022/05/26 13:43:38;;;;;;;1.67;0.75;;;29.60;29.50;;;;;;5089460;28;20051;-70
2022/05/26 13:46:06;;;;;;;1.88;0.60;;;30.10;28.50;;;;;;5090868;28;20376;-71
2022/05/26 13:48:34;;;;;;;1.92;0.80;;;30.60;27.80;;;;;;5090201;28;20077;-70
2022/05/26 13:51:04;;;;;;;2.42;0.85;;;31.00;26.90;;;;;;5093408;28;20028;-67
2022/05/26 13:53:32;;;;;;;2.03;0.60;;;31.50;26.20;;;;;;5092027;28;20028;-68
2022/05/26 13:56:05;;;;;;;1.05;0.55;;;31.80;26.40;;;;;;5095445;28;20028;-68
2022/05/26 13:58:32;;;;;;;2.60;0.80;;;32.30;25.90;;;;;;5094834;28;20597;-69
2022/05/26 14:01:05;;;;;;;2.28;0.90;;;32.80;26.00;;;;;;5095229;28;20476;-70